createdAt,value
2023-02-17T00:01:56.416Z,99522.00
2023-02-17T00:04:44.151Z,99515.00
2023-02-17T00:07:35.236Z,99516.00
2023-02-17T00:10:22.834Z,99509.00
2023-02-17T00:13:10.768Z,99503.00
2023-02-17T00:15:58.887Z,99508.00
2023-02-17T00:18:47.528Z,99508.00
2023-02-17T00:21:35.167Z,99508.00
2023-02-17T00:24:25.471Z,99508.00
2023-02-17T00:27:13.226Z,99503.00
2023-02-17T00:30:01.410Z,99510.00
2023-02-17T00:32:49.774Z,99512.00
2023-02-17T00:35:41.268Z,99510.00
2023-02-17T00:38:30.216Z,99502.00
2023-02-17T00:41:19.551Z,99510.00
2023-02-17T00:44:07.135Z,99508.00
2023-02-17T00:46:54.752Z,99514.00
2023-02-17T00:49:42.363Z,99520.00
2023-02-17T00:52:30.022Z,99519.00
2023-02-17T00:55:18.028Z,99514.00
2023-02-17T00:58:05.696Z,99520.00
2023-02-17T01:00:55.162Z,99507.00
2023-02-17T01:03:44.134Z,99496.00
2023-02-17T01:06:36.463Z,99509.00
2023-02-17T01:09:24.493Z,99502.00
2023-02-17T01:12:13.094Z,99482.00
2023-02-17T01:15:01.427Z,99492.00
2023-02-17T01:17:49.107Z,99497.00
2023-02-17T01:20:38.996Z,99515.00
2023-02-17T01:23:26.484Z,99496.00
2023-02-17T01:26:21.718Z,99495.00
2023-02-17T01:29:09.740Z,99498.00
2023-02-17T01:31:57.757Z,99481.00
2023-02-17T01:34:45.507Z,99488.00
2023-02-17T01:37:36.485Z,99472.00
2023-02-17T01:40:24.264Z,99473.00
2023-02-17T01:43:18.034Z,99471.00
2023-02-17T01:46:08.114Z,99478.00
2023-02-17T01:48:55.841Z,99478.00
2023-02-17T01:51:50.256Z,99489.00
2023-02-17T01:54:52.923Z,99474.00
2023-02-17T01:57:43.252Z,99461.00
2023-02-17T02:00:35.620Z,99460.00
2023-02-17T02:03:23.468Z,99450.00
2023-02-17T02:06:20.796Z,99452.00
2023-02-17T02:09:17.058Z,99442.00
2023-02-17T02:12:30.918Z,99435.00
2023-02-17T02:15:25.211Z,99438.00
2023-02-17T02:18:36.247Z,99419.00
2023-02-17T02:21:37.793Z,99434.00
2023-02-17T02:24:52.149Z,99429.00
2023-02-17T02:28:36.521Z,99422.00
2023-02-17T02:32:14.921Z,99421.00
2023-02-17T02:35:44.258Z,99429.00
2023-02-17T02:39:02.494Z,99438.00
2023-02-17T02:42:23.008Z,99417.00
2023-02-17T02:45:12.157Z,99418.00
2023-02-17T02:47:59.793Z,99416.00
2023-02-17T02:51:03.715Z,99405.00
2023-02-17T02:54:28.600Z,99407.00
2023-02-17T02:57:56.120Z,99411.00
2023-02-17T03:01:01.426Z,99428.00
2023-02-17T03:04:06.473Z,99430.00
2023-02-17T03:07:05.980Z,99439.00
2023-02-17T03:09:58.026Z,99437.00
2023-02-17T03:12:45.828Z,99423.00
2023-02-17T03:15:35.679Z,99419.00
2023-02-17T03:18:23.162Z,99413.00
2023-02-17T03:21:16.375Z,99425.00
2023-02-17T03:24:04.994Z,99411.00
2023-02-17T03:26:52.977Z,99430.00
2023-02-17T03:29:40.884Z,99436.00
2023-02-17T03:32:28.532Z,99435.00
2023-02-17T03:35:16.321Z,99419.00
2023-02-17T03:38:04.604Z,99404.00
2023-02-17T03:40:53.991Z,99394.00
2023-02-17T03:43:41.593Z,99413.00
2023-02-17T03:46:29.980Z,99422.00
2023-02-17T03:49:17.623Z,99426.00
2023-02-17T03:52:05.798Z,99416.00
2023-02-17T03:54:53.389Z,99422.00
2023-02-17T03:57:40.967Z,99417.00
2023-02-17T04:00:28.542Z,99413.00
2023-02-17T04:03:16.277Z,99423.00
2023-02-17T04:06:04.917Z,99426.00
2023-02-17T04:08:52.709Z,99430.00
2023-02-17T04:11:40.346Z,99420.00
2023-02-17T04:14:27.892Z,99425.00
2023-02-17T04:17:15.700Z,99402.00
2023-02-17T04:20:08.061Z,99395.00
2023-02-17T04:22:55.784Z,99402.00
2023-02-17T04:25:44.284Z,99401.00
2023-02-17T04:28:32.051Z,99401.00
2023-02-17T04:31:19.687Z,99419.00
2023-02-17T04:34:07.257Z,99411.00
2023-02-17T04:36:55.162Z,99404.00
2023-02-17T04:39:42.900Z,99389.00
2023-02-17T04:42:30.441Z,99391.00
2023-02-17T04:45:18.393Z,99394.00
2023-02-17T04:48:06.295Z,99391.00
2023-02-17T04:50:54.094Z,99381.00
2023-02-17T04:53:41.814Z,99367.00
2023-02-17T04:56:29.566Z,99354.00
2023-02-17T04:59:17.054Z,99362.00
2023-02-17T05:02:05.167Z,99362.00
2023-02-17T05:04:53.805Z,99358.00
2023-02-17T05:07:43.329Z,99373.00
2023-02-17T05:10:31.375Z,99373.00
2023-02-17T05:13:19.871Z,99381.00
2023-02-17T05:16:07.993Z,99381.00
2023-02-17T05:18:55.954Z,99372.00
2023-02-17T05:21:43.639Z,99365.00
2023-02-17T05:24:31.239Z,99379.00
2023-02-17T05:27:19.747Z,99385.00
2023-02-17T05:30:07.967Z,99389.00
2023-02-17T05:32:56.868Z,99376.00
2023-02-17T05:35:44.879Z,99376.00
2023-02-17T05:38:33.005Z,99382.00
2023-02-17T05:41:20.668Z,99378.00
2023-02-17T05:44:08.896Z,99373.00
2023-02-17T05:46:56.920Z,99354.00
2023-02-17T05:49:44.585Z,99350.00
2023-02-17T05:52:32.455Z,99354.00
2023-02-17T05:55:20.269Z,99358.00
2023-02-17T05:58:07.811Z,99346.00
2023-02-17T06:00:55.418Z,99351.00
2023-02-17T06:03:43.320Z,99341.00
2023-02-17T06:06:30.999Z,99355.00
2023-02-17T06:09:18.955Z,99363.00
2023-02-17T06:12:06.827Z,99369.00
2023-02-17T06:14:54.449Z,99369.00
2023-02-17T06:17:42.300Z,99365.00
2023-02-17T06:20:29.971Z,99352.00
2023-02-17T06:23:18.115Z,99346.00
2023-02-17T06:26:06.323Z,99347.00
2023-02-17T06:28:54.535Z,99352.00
2023-02-17T06:31:43.369Z,99333.00
2023-02-17T06:34:31.284Z,99334.00
2023-02-17T06:37:18.844Z,99347.00
2023-02-17T06:40:07.242Z,99346.00
2023-02-17T06:42:54.805Z,99347.00
2023-02-17T06:45:42.397Z,99351.00
2023-02-17T06:48:33.256Z,99346.00
2023-02-17T06:51:20.871Z,99346.00
2023-02-17T06:54:08.589Z,99342.00
2023-02-17T06:56:56.269Z,99345.00
2023-02-17T06:59:43.891Z,99352.00
2023-02-17T07:02:31.735Z,99338.00
2023-02-17T07:05:19.812Z,99340.00
2023-02-17T07:08:07.432Z,99354.00
2023-02-17T07:10:55.514Z,99353.00
2023-02-17T07:13:44.352Z,99349.00
2023-02-17T07:16:32.101Z,99340.00
2023-02-17T07:19:20.015Z,99338.00
2023-02-17T07:22:07.630Z,99338.00
2023-02-17T07:24:55.126Z,99337.00
2023-02-17T07:27:42.755Z,99326.00
2023-02-17T07:30:30.560Z,99330.00
2023-02-17T07:33:18.183Z,99331.00
2023-02-17T07:36:15.558Z,99342.00
2023-02-17T07:39:04.054Z,99334.00
2023-02-17T07:41:51.730Z,99329.00
2023-02-17T07:44:39.279Z,99327.00
2023-02-17T07:47:26.723Z,99332.00
2023-02-17T07:50:14.426Z,99328.00
2023-02-17T07:53:01.965Z,99309.00
2023-02-17T07:55:49.905Z,99305.00
2023-02-17T07:58:40.748Z,99327.00
2023-02-17T08:01:31.124Z,99323.00
2023-02-17T08:04:18.870Z,99321.00
2023-02-17T08:07:06.387Z,99308.00
2023-02-17T08:10:12.594Z,99310.00
2023-02-17T08:13:00.385Z,99332.00
2023-02-17T08:15:47.940Z,99346.00
2023-02-17T08:18:36.739Z,99339.00
2023-02-17T08:21:27.234Z,99344.00
2023-02-17T08:24:19.890Z,99345.00
2023-02-17T08:27:07.481Z,99346.00
2023-02-17T08:29:55.816Z,99346.00
2023-02-17T08:32:47.947Z,99341.00
2023-02-17T08:35:35.875Z,99331.00
2023-02-17T08:38:23.961Z,99332.00
2023-02-17T08:41:22.927Z,99333.00
2023-02-17T08:44:16.084Z,99331.00
2023-02-17T08:47:06.497Z,99330.00
2023-02-17T08:49:54.935Z,99340.00
2023-02-17T08:52:45.170Z,99332.00
2023-02-17T08:55:47.333Z,99335.00
2023-02-17T08:58:37.567Z,99341.00
2023-02-17T09:01:25.363Z,99334.00
2023-02-17T09:04:15.980Z,99339.00
2023-02-17T09:07:03.730Z,99334.00
2023-02-17T09:09:51.647Z,99325.00
2023-02-17T09:12:39.337Z,99326.00
2023-02-17T09:15:26.865Z,99329.00
2023-02-17T09:18:14.499Z,99342.00
2023-02-17T09:21:14.221Z,99322.00
2023-02-17T09:24:01.895Z,99327.00
2023-02-17T09:26:49.527Z,99336.00
2023-02-17T09:29:40.838Z,99329.00
2023-02-17T09:32:28.548Z,99330.00
2023-02-17T09:35:19.053Z,99339.00
2023-02-17T09:38:07.326Z,99349.00
2023-02-17T09:40:55.465Z,99354.00
2023-02-17T09:43:44.068Z,99344.00
2023-02-17T09:46:49.713Z,99345.00
2023-02-17T09:49:51.794Z,99345.00
2023-02-17T09:53:01.088Z,99324.00
2023-02-17T09:55:59.073Z,99343.00
2023-02-17T09:59:20.359Z,99326.00
2023-02-17T10:02:19.196Z,99335.00
2023-02-17T10:05:11.024Z,99347.00
2023-02-17T10:08:10.363Z,99352.00
2023-02-17T10:11:15.051Z,99356.00
2023-02-17T10:14:46.358Z,99347.00
2023-02-17T10:18:05.266Z,99355.00
2023-02-17T10:21:00.967Z,99342.00
2023-02-17T10:23:48.720Z,99338.00
2023-02-17T10:27:17.918Z,99335.00
2023-02-17T10:30:17.195Z,99330.00
2023-02-17T10:33:38.106Z,99330.00
2023-02-17T10:37:01.382Z,99335.00
2023-02-17T10:39:53.646Z,99331.00
2023-02-17T10:42:41.575Z,99334.00
2023-02-17T10:45:49.655Z,99329.00
2023-02-17T10:48:54.823Z,99325.00
2023-02-17T10:51:42.775Z,99310.00
2023-02-17T10:54:51.464Z,99296.00
2023-02-17T10:57:42.310Z,99293.00
2023-02-17T11:00:29.897Z,99280.00
2023-02-17T11:03:23.664Z,99270.00
2023-02-17T11:06:22.983Z,99267.00
2023-02-17T11:09:33.476Z,99272.00
2023-02-17T11:12:50.032Z,99279.00
2023-02-17T11:15:46.272Z,99264.00
2023-02-17T11:18:40.773Z,99259.00
2023-02-17T11:21:30.826Z,99259.00
2023-02-17T11:24:18.837Z,99245.00
2023-02-17T11:27:12.402Z,99249.00
2023-02-17T11:30:15.986Z,99247.00
2023-02-17T11:33:16.528Z,99232.00
2023-02-17T11:36:08.009Z,99232.00
2023-02-17T11:38:57.576Z,99225.00
2023-02-17T11:41:45.546Z,99222.00
2023-02-17T11:44:33.161Z,99213.00
2023-02-17T11:47:47.324Z,99203.00
2023-02-17T11:51:08.148Z,99205.00
2023-02-17T11:54:44.893Z,99194.00
2023-02-17T11:57:53.999Z,99190.00
2023-02-17T12:01:07.394Z,99192.00
2023-02-17T12:04:15.805Z,99187.00
2023-02-17T12:07:51.362Z,99175.00
2023-02-17T12:11:09.941Z,99175.00
2023-02-17T12:14:17.211Z,99173.00
2023-02-17T12:17:26.884Z,99179.00
2023-02-17T12:20:49.934Z,99164.00
2023-02-17T12:24:13.419Z,99158.00
2023-02-17T12:27:15.760Z,99148.00
2023-02-17T12:30:34.319Z,99146.00
2023-02-17T12:33:55.564Z,99136.00
2023-02-17T12:36:44.508Z,99146.00
2023-02-17T12:40:23.425Z,99130.00
2023-02-17T12:43:46.797Z,99125.00
2023-02-17T12:46:44.660Z,99120.00
2023-02-17T12:49:43.212Z,99126.00
2023-02-17T12:52:41.433Z,99128.00
2023-02-17T12:55:48.947Z,99115.00
2023-02-17T12:58:36.768Z,99111.00
2023-02-17T13:01:32.049Z,99104.00
2023-02-17T13:04:25.080Z,99101.00
2023-02-17T13:07:33.730Z,99098.00
2023-02-17T13:10:27.166Z,99100.00
2023-02-17T13:13:30.280Z,99103.00
2023-02-17T13:16:18.046Z,99103.00
2023-02-17T13:19:09.438Z,99094.00
2023-02-17T13:22:00.133Z,99098.00
2023-02-17T13:24:55.932Z,99101.00
2023-02-17T13:27:43.451Z,99097.00
2023-02-17T13:30:45.142Z,99078.00
2023-02-17T13:33:41.289Z,99077.00
2023-02-17T13:36:28.834Z,99083.00
2023-02-17T13:39:28.712Z,99082.00
2023-02-17T13:42:38.165Z,99085.00
2023-02-17T13:45:57.470Z,99089.00
2023-02-17T13:48:45.223Z,99088.00
2023-02-17T13:51:34.381Z,99094.00
2023-02-17T13:54:23.936Z,99092.00
2023-02-17T13:57:32.365Z,99080.00
2023-02-17T14:00:24.584Z,99077.00
2023-02-17T14:03:42.008Z,99075.00
2023-02-17T14:06:41.049Z,99083.00
2023-02-17T14:09:33.250Z,99083.00
2023-02-17T14:12:24.378Z,99082.00
2023-02-17T14:15:26.242Z,99075.00
2023-02-17T14:18:16.420Z,99089.00
2023-02-17T14:21:26.657Z,99095.00
2023-02-17T14:24:33.219Z,99099.00
2023-02-17T14:27:21.064Z,99090.00
2023-02-17T14:30:33.763Z,99093.00
2023-02-17T14:33:25.687Z,99087.00
2023-02-17T14:36:13.181Z,99092.00
2023-02-17T14:39:02.537Z,99092.00
2023-02-17T14:41:50.076Z,99084.00
2023-02-17T14:44:37.562Z,99081.00
2023-02-17T14:47:25.378Z,99081.00
2023-02-17T14:50:13.769Z,99078.00
2023-02-17T14:53:01.467Z,99080.00
2023-02-17T14:55:58.380Z,99072.00
2023-02-17T14:58:46.648Z,99062.00
2023-02-17T15:01:34.233Z,99059.00
2023-02-17T15:04:21.786Z,99061.00
2023-02-17T15:07:16.396Z,99066.00
2023-02-17T15:10:18.956Z,99070.00
2023-02-17T15:13:07.048Z,99058.00
2023-02-17T15:15:56.032Z,99062.00
2023-02-17T15:18:43.763Z,99068.00
2023-02-17T15:21:34.851Z,99076.00
2023-02-17T15:24:31.201Z,99083.00
2023-02-17T15:27:21.119Z,99078.00
2023-02-17T15:30:21.251Z,99089.00
2023-02-17T15:33:13.838Z,99088.00
2023-02-17T15:36:01.609Z,99103.00
2023-02-17T15:38:49.258Z,99106.00
2023-02-17T15:41:37.208Z,99101.00
2023-02-17T15:44:40.991Z,99108.00
2023-02-17T15:47:29.429Z,99096.00
2023-02-17T15:50:23.058Z,99095.00
2023-02-17T15:53:10.720Z,99087.00
2023-02-17T15:56:01.432Z,99079.00
2023-02-17T15:58:51.318Z,99078.00
2023-02-17T16:01:39.140Z,99085.00
2023-02-17T16:04:27.092Z,99082.00
2023-02-17T16:07:15.460Z,99078.00
2023-02-17T16:10:05.066Z,99081.00
2023-02-17T16:12:56.525Z,99089.00
2023-02-17T16:15:45.276Z,99087.00
2023-02-17T16:18:32.897Z,99082.00
2023-02-17T16:21:20.556Z,99083.00
2023-02-17T16:24:08.135Z,99088.00
2023-02-17T16:26:56.525Z,99092.00
2023-02-17T16:29:44.508Z,99096.00
2023-02-17T16:32:34.797Z,99105.00
2023-02-17T16:35:27.360Z,99106.00
2023-02-17T16:38:23.575Z,99109.00
2023-02-17T16:41:16.480Z,99097.00
2023-02-17T16:44:04.737Z,99100.00
2023-02-17T16:46:57.538Z,99096.00
2023-02-17T16:49:48.203Z,99110.00
2023-02-17T16:52:35.886Z,99100.00
2023-02-17T16:55:28.580Z,99098.00
2023-02-17T16:58:17.936Z,99095.00
2023-02-17T17:01:05.728Z,99087.00
2023-02-17T17:03:53.397Z,99084.00
2023-02-17T17:06:50.769Z,99090.00
2023-02-17T17:09:38.359Z,99085.00
2023-02-17T17:12:25.960Z,99098.00
2023-02-17T17:15:16.541Z,99097.00
2023-02-17T17:18:08.723Z,99099.00
2023-02-17T17:20:56.355Z,99096.00
2023-02-17T17:23:46.621Z,99095.00
2023-02-17T17:26:40.857Z,99091.00
2023-02-17T17:29:28.446Z,99089.00
2023-02-17T17:32:16.163Z,99087.00
2023-02-17T17:35:04.003Z,99090.00
2023-02-17T17:37:51.710Z,99093.00
2023-02-17T17:40:53.426Z,99090.00
2023-02-17T17:43:42.429Z,99078.00
2023-02-17T17:46:35.853Z,99079.00
2023-02-17T17:49:23.567Z,99073.00
2023-02-17T17:52:14.562Z,99079.00
2023-02-17T17:55:03.944Z,99085.00
2023-02-17T17:57:53.957Z,99082.00
2023-02-17T18:00:41.613Z,99083.00
2023-02-17T18:03:29.131Z,99079.00
2023-02-17T18:06:26.188Z,99078.00
2023-02-17T18:09:31.320Z,99062.00
2023-02-17T18:12:20.881Z,99069.00
2023-02-17T18:15:09.686Z,99057.00
2023-02-17T18:17:57.587Z,99049.00
2023-02-17T18:20:45.706Z,99049.00
2023-02-17T18:23:33.292Z,99052.00
2023-02-17T18:26:21.112Z,99049.00
2023-02-17T18:29:08.718Z,99052.00
2023-02-17T18:31:57.858Z,99048.00
2023-02-17T18:34:45.693Z,99037.00
2023-02-17T18:37:34.076Z,99024.00
2023-02-17T18:40:22.749Z,99031.00
2023-02-17T18:43:10.467Z,99026.00
2023-02-17T18:45:58.289Z,99020.00
2023-02-17T18:48:46.800Z,99008.00
2023-02-17T18:51:34.710Z,99011.00
2023-02-17T18:54:22.296Z,99010.00
2023-02-17T18:57:10.031Z,99007.00
2023-02-17T18:59:57.583Z,99006.00
2023-02-17T19:02:45.280Z,99002.00
2023-02-17T19:05:32.995Z,99001.00
2023-02-17T19:08:20.567Z,99005.00
2023-02-17T19:11:08.852Z,98999.00
2023-02-17T19:13:56.569Z,98997.00
2023-02-17T19:16:44.288Z,99003.00
2023-02-17T19:19:32.075Z,99006.00
2023-02-17T19:22:20.040Z,99011.00
2023-02-17T19:25:08.413Z,99008.00
2023-02-17T19:27:55.949Z,99016.00
2023-02-17T19:30:43.617Z,99012.00
2023-02-17T19:33:31.169Z,99013.00
2023-02-17T19:36:22.435Z,99008.00
2023-02-17T19:39:09.989Z,99017.00
2023-02-17T19:41:57.883Z,99025.00
2023-02-17T19:44:45.602Z,99032.00
2023-02-17T19:47:33.184Z,99033.00
2023-02-17T19:50:20.956Z,99037.00
2023-02-17T19:53:08.515Z,99047.00
2023-02-17T19:55:56.271Z,99052.00
2023-02-17T19:58:45.664Z,99053.00
2023-02-17T20:01:35.154Z,99057.00
2023-02-17T20:04:22.709Z,99065.00
2023-02-17T20:07:10.328Z,99064.00
2023-02-17T20:09:58.072Z,99062.00
2023-02-17T20:12:46.173Z,99072.00
2023-02-17T20:15:33.916Z,99066.00
2023-02-17T20:18:21.466Z,99075.00
2023-02-17T20:21:11.533Z,99077.00
2023-02-17T20:23:59.917Z,99076.00
2023-02-17T20:26:51.117Z,99066.00
2023-02-17T20:29:38.843Z,99071.00
2023-02-17T20:32:26.493Z,99064.00
2023-02-17T20:35:14.867Z,99054.00
2023-02-17T20:38:03.375Z,99057.00
2023-02-17T20:40:51.272Z,99055.00
2023-02-17T20:43:38.913Z,99033.00
2023-02-17T20:46:29.638Z,99020.00
2023-02-17T20:49:17.259Z,99019.00
2023-02-17T20:52:05.857Z,99028.00
2023-02-17T20:54:53.423Z,99025.00
2023-02-17T20:57:42.171Z,99026.00
2023-02-17T21:00:30.482Z,99032.00
2023-02-17T21:03:18.195Z,99029.00
2023-02-17T21:06:27.503Z,99038.00
2023-02-17T21:09:18.512Z,99044.00
2023-02-17T21:12:07.191Z,99044.00
2023-02-17T21:14:54.819Z,99034.00
2023-02-17T21:17:42.984Z,99029.00
2023-02-17T21:20:30.452Z,99047.00
2023-02-17T21:23:18.114Z,99041.00
2023-02-17T21:26:10.719Z,99029.00
2023-02-17T21:28:58.408Z,99028.00
2023-02-17T21:31:45.969Z,99025.00
2023-02-17T21:34:38.037Z,99024.00
2023-02-17T21:37:25.622Z,99022.00
2023-02-17T21:40:13.551Z,99020.00
2023-02-17T21:43:19.569Z,99022.00
2023-02-17T21:46:12.248Z,99033.00
2023-02-17T21:49:01.595Z,99032.00
2023-02-17T21:51:49.966Z,99044.00
2023-02-17T21:54:37.723Z,99050.00
2023-02-17T21:57:25.290Z,99056.00
2023-02-17T22:00:14.164Z,99064.00
2023-02-17T22:03:01.762Z,99064.00
2023-02-17T22:05:49.881Z,99075.00
2023-02-17T22:08:37.711Z,99079.00
2023-02-17T22:11:34.622Z,99078.00
2023-02-17T22:14:22.878Z,99087.00
2023-02-17T22:17:10.435Z,99086.00
2023-02-17T22:19:59.255Z,99087.00
2023-02-17T22:22:46.894Z,99095.00
2023-02-17T22:25:34.571Z,99086.00
2023-02-17T22:28:22.165Z,99099.00
2023-02-17T22:31:14.250Z,99097.00
2023-02-17T22:34:06.906Z,99099.00
2023-02-17T22:36:54.585Z,99095.00
2023-02-17T22:39:42.182Z,99095.00
2023-02-17T22:42:30.307Z,99097.00
2023-02-17T22:45:18.001Z,99098.00
2023-02-17T22:48:06.201Z,99091.00
2023-02-17T22:50:53.934Z,99095.00
2023-02-17T22:53:42.742Z,99090.00
2023-02-17T22:56:31.069Z,99084.00
2023-02-17T22:59:18.615Z,99090.00
2023-02-17T23:02:06.335Z,99097.00
2023-02-17T23:04:53.853Z,99091.00
2023-02-17T23:07:41.763Z,99081.00
2023-02-17T23:10:29.298Z,99080.00
2023-02-17T23:13:17.873Z,99083.00
2023-02-17T23:16:07.598Z,99099.00
2023-02-17T23:18:56.680Z,99089.00
2023-02-17T23:21:48.509Z,99093.00
2023-02-17T23:24:36.509Z,99092.00
2023-02-17T23:27:24.090Z,99098.00
2023-02-17T23:30:21.990Z,99098.00
2023-02-17T23:33:10.724Z,99095.00
2023-02-17T23:35:58.319Z,99098.00
2023-02-17T23:38:46.007Z,99093.00
2023-02-17T23:41:36.310Z,99107.00
2023-02-17T23:44:23.892Z,99095.00
2023-02-17T23:47:11.427Z,99104.00
2023-02-17T23:49:59.005Z,99101.00
2023-02-17T23:52:46.718Z,99109.00
2023-02-17T23:55:34.733Z,99110.00
2023-02-17T23:58:22.277Z,99106.00
